Last 24 Hours

OV-Belmont 8000'

Hourly Data | America/Los_Angeles
as of 5/8/26 2:56 PM PDT
Date & Time Temp (°F) RH (%) Dew Pt (°F) Wet Bulb (°F) Wind Dir (°) Wind Spd (mph) Wind Gust (mph) WindChill (°F) Latest Rain (In) New Snow (HN) (in) Snow Depth (HS) (in) Daily Min Temp (°F) Daily Max Temp (°F) Daily Rain (In)
5/8/26 - 1400 57.7 26 23.4 41.7 SW | 236 8.8 16.6 57.7 0.00 0.0 39.8 43.6 59.8 0.00
5/8/26 - 1300 57.4 24 21.3 41.0 SW | 228 7.4 17.3 57.7 0.00 0.0 40.1 43.6 59.8 0.00
5/8/26 - 1200 56.7 26 22.3 40.9 SW | 232 7.1 13.7 56.3 0.00 0.0 40.4 43.6 58.2 0.00
5/8/26 - 1100 56.7 25 21.2 40.6 SSW | 205 7.0 15.3 53.7 0.00 0.0 40.4 43.6 56.8 0.00
5/8/26 - 1000 53.3 25 18.6 38.3 SSW | 203 6.7 12.4 50.2 0.00 0.1 40.7 43.6 53.4 0.00
5/8/26 - 0900 50.9 25 16.1 36.5 SSW | 203 6.9 12.8 46.7 0.00 0.1 40.6 43.6 51.1 0.00
5/8/26 - 0800 48.4 26 15.2 35.0 SSW | 205 8.1 13.8 43.5 0.00 0.1 40.7 43.6 48.4 0.00
5/8/26 - 0700 46.0 31 17.1 34.2 SSW | 202 9.3 16.9 40.4 0.00 0.1 40.8 43.6 46.7 0.00
5/8/26 - 0600 45.0 30 15.4 33.3 SSW | 196 10.7 18.3 39.1 0.00 0.1 40.8 43.6 46.7 0.00
5/8/26 - 0500 43.7 34 17.3 33.0 SSW | 200 10.3 15.1 39.4 0.00 0.1 40.7 43.7 46.7 0.00
5/8/26 - 0400 45.3 30 16.0 33.6 SSW | 200 11.3 18.7 39.9 0.00 0.1 40.7 44.0 46.7 0.00
5/8/26 - 0300 44.9 30 15.4 33.2 SSW | 200 12.4 18.0 39.1 0.00 0.1 40.8 44.0 46.7 0.00
5/8/26 - 0200 46.4 27 14.1 33.7 SW | 222 9.4 14.7 41.5 0.00 0.1 40.6 45.5 46.7 0.00
5/8/26 - 0100 45.8 26 13.1 33.2 SW | 228 7.2 12.0 42.3 0.00 0.1 40.7 45.5 46.7 0.00
5/8/26 - 0000 45.6 30 15.8 33.7 SW | 218 7.4 12.9 41.9 0.00 0.1 40.7 44.7 58.8 0.00
5/7/26 - 2300 45.0 27 13.1 32.7 SW | 214 8.8 15.2 42.2 0.00 0.0 40.7 45.0 58.8 0.00
5/7/26 - 2200 47.8 21 10.1 33.5 SW | 217 13.4 20.4 42.3 0.00 0.1 40.7 46.2 58.8 0.00
5/7/26 - 2100 47.5 29 16.9 34.9 SW | 221 15.4 21.0 40.5 0.00 0.1 40.8 46.2 58.8 0.00
5/7/26 - 2000 47.2 61 34.7 40.8 SW | 230 15.8 23.0 42.2 0.00 0.1 40.8 46.6 58.8 0.00
5/7/26 - 1900 49.5 63 37.5 43.1 SW | 229 16.1 24.6 45.8 0.00 0.1 40.8 46.6 58.8 0.00
5/7/26 - 1800 52.1 56 36.8 43.9 SW | 226 13.9 24.1 52.9 0.00 0.1 40.8 46.6 58.8 0.00
5/7/26 - 1700 56.2 35 28.8 42.6 SSW | 213 14.0 23.1 56.5 0.00 0.0 40.8 46.6 58.8 0.00
5/7/26 - 1600 56.6 35 29.4 43.0 SW | 220 13.8 24.2 56.9 0.00 0.0 40.9 46.6 58.8 0.00
5/7/26 - 1500 56.3 39 31.8 43.8 SW | 220 12.4 23.3 56.8 0.00 0.1 41.2 46.6 58.8 0.00
5/7/26 - 1400 57.0 40 33.1 44.5 SW | 224 12.0 23.8 56.2 0.00 0.1 41.7 46.6 57.0 0.00
Max 57.7 63 37.5 44.5 - 16.1 24.6 57.7 0.00 0.1 41.7 46.6 59.8 0.00
Avg 50.4 33 21.4 37.8 - 10.6 18.0 47.3 0.00 0.1 40.7 - - -
Min 43.7 21 10.1 32.7 - 6.7 12.0 39.1 0.00 0.0 39.8 43.6 46.7 0.00
Total - - - - - - - - 0.00 - - - - -